sensor_id;sensor_type;location;lat;lon;timestamp;P1;durP1;ratioP1;P2;durP2;ratioP2
40717;SDS011;26405;51.850;-2.246;2023-03-14T00:00:30;1.35;;;1.10;;
40717;SDS011;26405;51.850;-2.246;2023-03-14T00:02:55;1.65;;;1.10;;
40717;SDS011;26405;51.850;-2.246;2023-03-14T00:05:21;2.25;;;1.10;;
40717;SDS011;26405;51.850;-2.246;2023-03-14T00:07:46;1.80;;;0.90;;
40717;SDS011;26405;51.850;-2.246;2023-03-14T00:10:12;1.02;;;0.93;;
40717;SDS011;26405;51.850;-2.246;2023-03-14T00:12:38;1.83;;;1.33;;
40717;SDS011;26405;51.850;-2.246;2023-03-14T00:15:04;2.47;;;1.48;;
40717;SDS011;26405;51.850;-2.246;2023-03-14T00:17:34;3.15;;;1.48;;
40717;SDS011;26405;51.850;-2.246;2023-03-14T00:19:59;3.10;;;1.50;;
40717;SDS011;26405;51.850;-2.246;2023-03-14T00:22:29;3.42;;;1.80;;
40717;SDS011;26405;51.850;-2.246;2023-03-14T00:24:56;2.58;;;1.58;;
40717;SDS011;26405;51.850;-2.246;2023-03-14T00:27:21;2.25;;;1.45;;
40717;SDS011;26405;51.850;-2.246;2023-03-14T00:29:46;4.25;;;1.83;;
40717;SDS011;26405;51.850;-2.246;2023-03-14T00:32:11;3.17;;;1.45;;
40717;SDS011;26405;51.850;-2.246;2023-03-14T00:34:37;5.45;;;1.75;;
40717;SDS011;26405;51.850;-2.246;2023-03-14T00:37:02;3.88;;;1.67;;
40717;SDS011;26405;51.850;-2.246;2023-03-14T00:39:27;5.30;;;1.88;;
40717;SDS011;26405;51.850;-2.246;2023-03-14T00:41:53;2.92;;;1.70;;
40717;SDS011;26405;51.850;-2.246;2023-03-14T00:44:18;4.45;;;1.80;;
40717;SDS011;26405;51.850;-2.246;2023-03-14T00:46:43;4.63;;;1.48;;
40717;SDS011;26405;51.850;-2.246;2023-03-14T00:49:08;3.33;;;1.63;;
40717;SDS011;26405;51.850;-2.246;2023-03-14T00:51:34;7.82;;;1.90;;
40717;SDS011;26405;51.850;-2.246;2023-03-14T00:53:59;4.95;;;1.90;;
40717;SDS011;26405;51.850;-2.246;2023-03-14T00:56:25;5.32;;;1.98;;
40717;SDS011;26405;51.850;-2.246;2023-03-14T00:58:53;5.70;;;2.03;;
40717;SDS011;26405;51.850;-2.246;2023-03-14T01:01:18;5.28;;;1.58;;
40717;SDS011;26405;51.850;-2.246;2023-03-14T01:03:43;4.57;;;1.92;;
40717;SDS011;26405;51.850;-2.246;2023-03-14T01:08:37;5.13;;;1.70;;
40717;SDS011;26405;51.850;-2.246;2023-03-14T01:11:09;6.13;;;1.90;;
40717;SDS011;26405;51.850;-2.246;2023-03-14T01:13:36;8.90;;;2.03;;
40717;SDS011;26405;51.850;-2.246;2023-03-14T01:16:02;5.60;;;2.00;;
40717;SDS011;26405;51.850;-2.246;2023-03-14T01:18:28;7.10;;;2.08;;
40717;SDS011;26405;51.850;-2.246;2023-03-14T01:20:53;12.13;;;2.15;;
40717;SDS011;26405;51.850;-2.246;2023-03-14T01:23:18;5.20;;;1.88;;
40717;SDS011;26405;51.850;-2.246;2023-03-14T01:25:43;7.90;;;2.13;;
40717;SDS011;26405;51.850;-2.246;2023-03-14T01:28:08;7.15;;;2.10;;
40717;SDS011;26405;51.850;-2.246;2023-03-14T01:30:34;6.72;;;2.15;;
40717;SDS011;26405;51.850;-2.246;2023-03-14T01:32:59;9.05;;;2.20;;
40717;SDS011;26405;51.850;-2.246;2023-03-14T01:35:24;8.88;;;2.13;;
40717;SDS011;26405;51.850;-2.246;2023-03-14T01:37:49;4.97;;;1.88;;
40717;SDS011;26405;51.850;-2.246;2023-03-14T01:40:15;10.35;;;2.72;;
40717;SDS011;26405;51.850;-2.246;2023-03-14T01:42:45;10.05;;;2.30;;
40717;SDS011;26405;51.850;-2.246;2023-03-14T01:47:54;8.38;;;2.08;;
40717;SDS011;26405;51.850;-2.246;2023-03-14T01:50:19;10.55;;;2.30;;
40717;SDS011;26405;51.850;-2.246;2023-03-14T01:52:48;11.65;;;2.40;;
40717;SDS011;26405;51.850;-2.246;2023-03-14T01:57:41;10.23;;;2.70;;
40717;SDS011;26405;51.850;-2.246;2023-03-14T02:00:09;8.93;;;2.60;;
40717;SDS011;26405;51.850;-2.246;2023-03-14T02:02:37;12.75;;;2.30;;
40717;SDS011;26405;51.850;-2.246;2023-03-14T02:05:02;9.95;;;2.30;;
40717;SDS011;26405;51.850;-2.246;2023-03-14T02:09:59;9.80;;;2.28;;
40717;SDS011;26405;51.850;-2.246;2023-03-14T02:12:26;7.83;;;2.40;;
40717;SDS011;26405;51.850;-2.246;2023-03-14T02:14:52;10.63;;;2.50;;
40717;SDS011;26405;51.850;-2.246;2023-03-14T02:17:17;13.15;;;2.60;;
40717;SDS011;26405;51.850;-2.246;2023-03-14T02:22:12;12.07;;;2.70;;
40717;SDS011;26405;51.850;-2.246;2023-03-14T02:24:39;15.18;;;2.83;;
40717;SDS011;26405;51.850;-2.246;2023-03-14T02:27:17;14.13;;;2.50;;
40717;SDS011;26405;51.850;-2.246;2023-03-14T02:29:48;14.38;;;2.70;;
40717;SDS011;26405;51.850;-2.246;2023-03-14T02:32:14;11.57;;;2.53;;
40717;SDS011;26405;51.850;-2.246;2023-03-14T02:34:41;10.35;;;2.33;;
40717;SDS011;26405;51.850;-2.246;2023-03-14T02:37:07;17.02;;;2.83;;
40717;SDS011;26405;51.850;-2.246;2023-03-14T02:39:40;12.23;;;2.67;;
40717;SDS011;26405;51.850;-2.246;2023-03-14T02:42:06;12.77;;;2.45;;
40717;SDS011;26405;51.850;-2.246;2023-03-14T02:44:32;13.88;;;2.72;;
40717;SDS011;26405;51.850;-2.246;2023-03-14T02:46:57;14.90;;;2.55;;
40717;SDS011;26405;51.850;-2.246;2023-03-14T02:49:22;12.35;;;2.60;;
40717;SDS011;26405;51.850;-2.246;2023-03-14T02:51:48;11.07;;;2.38;;
40717;SDS011;26405;51.850;-2.246;2023-03-14T02:54:14;15.57;;;3.20;;
40717;SDS011;26405;51.850;-2.246;2023-03-14T02:56:40;12.30;;;2.63;;
40717;SDS011;26405;51.850;-2.246;2023-03-14T02:59:06;11.80;;;2.47;;
40717;SDS011;26405;51.850;-2.246;2023-03-14T03:01:31;12.55;;;2.30;;
40717;SDS011;26405;51.850;-2.246;2023-03-14T03:03:57;12.60;;;2.80;;
40717;SDS011;26405;51.850;-2.246;2023-03-14T03:06:23;13.90;;;2.75;;
40717;SDS011;26405;51.850;-2.246;2023-03-14T03:08:48;16.45;;;2.60;;
40717;SDS011;26405;51.850;-2.246;2023-03-14T03:11:13;10.40;;;2.28;;
40717;SDS011;26405;51.850;-2.246;2023-03-14T03:13:38;17.13;;;3.20;;
40717;SDS011;26405;51.850;-2.246;2023-03-14T03:16:04;12.57;;;2.70;;
40717;SDS011;26405;51.850;-2.246;2023-03-14T03:18:29;16.23;;;2.95;;
40717;SDS011;26405;51.850;-2.246;2023-03-14T03:20:54;10.80;;;2.33;;
40717;SDS011;26405;51.850;-2.246;2023-03-14T03:23:20;12.60;;;2.58;;
40717;SDS011;26405;51.850;-2.246;2023-03-14T03:25:48;10.38;;;2.55;;
40717;SDS011;26405;51.850;-2.246;2023-03-14T03:28:14;17.15;;;2.90;;
40717;SDS011;26405;51.850;-2.246;2023-03-14T03:30:40;14.35;;;2.75;;
40717;SDS011;26405;51.850;-2.246;2023-03-14T03:33:05;13.88;;;2.80;;
40717;SDS011;26405;51.850;-2.246;2023-03-14T03:35:31;12.35;;;2.75;;
40717;SDS011;26405;51.850;-2.246;2023-03-14T03:37:56;16.83;;;2.80;;
40717;SDS011;26405;51.850;-2.246;2023-03-14T03:40:21;14.90;;;2.70;;
40717;SDS011;26405;51.850;-2.246;2023-03-14T03:42:47;11.25;;;2.47;;
40717;SDS011;26405;51.850;-2.246;2023-03-14T03:45:12;8.65;;;2.30;;
40717;SDS011;26405;51.850;-2.246;2023-03-14T03:47:37;9.25;;;2.13;;
40717;SDS011;26405;51.850;-2.246;2023-03-14T03:50:02;15.05;;;2.92;;
40717;SDS011;26405;51.850;-2.246;2023-03-14T03:52:28;14.50;;;3.00;;
40717;SDS011;26405;51.850;-2.246;2023-03-14T03:54:53;14.00;;;3.00;;
40717;SDS011;26405;51.850;-2.246;2023-03-14T03:57:18;13.18;;;2.83;;
40717;SDS011;26405;51.850;-2.246;2023-03-14T03:59:43;8.63;;;2.45;;
40717;SDS011;26405;51.850;-2.246;2023-03-14T04:02:09;10.18;;;2.50;;
40717;SDS011;26405;51.850;-2.246;2023-03-14T04:04:34;11.13;;;2.35;;
40717;SDS011;26405;51.850;-2.246;2023-03-14T04:06:59;10.07;;;2.10;;
40717;SDS011;26405;51.850;-2.246;2023-03-14T04:09:25;10.98;;;2.58;;
40717;SDS011;26405;51.850;-2.246;2023-03-14T04:11:50;7.60;;;2.58;;
40717;SDS011;26405;51.850;-2.246;2023-03-14T04:14:15;13.38;;;2.88;;
40717;SDS011;26405;51.850;-2.246;2023-03-14T04:16:40;9.38;;;2.40;;
40717;SDS011;26405;51.850;-2.246;2023-03-14T04:19:06;10.65;;;2.80;;
40717;SDS011;26405;51.850;-2.246;2023-03-14T04:21:31;11.90;;;2.30;;
40717;SDS011;26405;51.850;-2.246;2023-03-14T04:23:56;6.82;;;2.28;;
40717;SDS011;26405;51.850;-2.246;2023-03-14T04:26:21;12.60;;;2.58;;
40717;SDS011;26405;51.850;-2.246;2023-03-14T04:28:47;10.27;;;2.45;;
40717;SDS011;26405;51.850;-2.246;2023-03-14T04:31:13;14.23;;;2.83;;
40717;SDS011;26405;51.850;-2.246;2023-03-14T04:33:38;11.77;;;2.27;;
40717;SDS011;26405;51.850;-2.246;2023-03-14T04:36:05;13.50;;;2.35;;
40717;SDS011;26405;51.850;-2.246;2023-03-14T04:38:30;13.03;;;2.73;;
40717;SDS011;26405;51.850;-2.246;2023-03-14T04:40:56;11.73;;;2.50;;
40717;SDS011;26405;51.850;-2.246;2023-03-14T04:43:21;15.32;;;2.50;;
40717;SDS011;26405;51.850;-2.246;2023-03-14T04:45:46;10.25;;;2.35;;
40717;SDS011;26405;51.850;-2.246;2023-03-14T04:48:11;11.05;;;2.70;;
40717;SDS011;26405;51.850;-2.246;2023-03-14T04:50:37;14.13;;;2.88;;
40717;SDS011;26405;51.850;-2.246;2023-03-14T04:53:03;11.00;;;2.38;;
40717;SDS011;26405;51.850;-2.246;2023-03-14T04:55:28;11.30;;;2.40;;
40717;SDS011;26405;51.850;-2.246;2023-03-14T04:57:53;9.02;;;2.40;;
40717;SDS011;26405;51.850;-2.246;2023-03-14T05:00:18;11.75;;;2.45;;
40717;SDS011;26405;51.850;-2.246;2023-03-14T05:02:44;11.45;;;2.30;;
40717;SDS011;26405;51.850;-2.246;2023-03-14T05:05:09;12.35;;;2.65;;
40717;SDS011;26405;51.850;-2.246;2023-03-14T05:07:35;13.73;;;2.90;;
40717;SDS011;26405;51.850;-2.246;2023-03-14T05:10:00;11.43;;;2.40;;
40717;SDS011;26405;51.850;-2.246;2023-03-14T05:12:25;10.57;;;2.22;;
40717;SDS011;26405;51.850;-2.246;2023-03-14T05:14:50;13.05;;;2.17;;
40717;SDS011;26405;51.850;-2.246;2023-03-14T05:17:16;15.57;;;2.17;;
40717;SDS011;26405;51.850;-2.246;2023-03-14T05:19:41;12.75;;;2.65;;
40717;SDS011;26405;51.850;-2.246;2023-03-14T05:22:07;11.32;;;2.38;;
40717;SDS011;26405;51.850;-2.246;2023-03-14T05:24:32;10.20;;;2.33;;
40717;SDS011;26405;51.850;-2.246;2023-03-14T05:26:57;10.77;;;2.28;;
40717;SDS011;26405;51.850;-2.246;2023-03-14T05:29:23;9.88;;;2.10;;
40717;SDS011;26405;51.850;-2.246;2023-03-14T05:31:48;10.65;;;2.65;;
40717;SDS011;26405;51.850;-2.246;2023-03-14T05:34:13;8.43;;;2.00;;
40717;SDS011;26405;51.850;-2.246;2023-03-14T05:36:39;14.82;;;2.65;;
40717;SDS011;26405;51.850;-2.246;2023-03-14T05:39:04;9.98;;;2.60;;
40717;SDS011;26405;51.850;-2.246;2023-03-14T05:41:29;14.18;;;2.53;;
40717;SDS011;26405;51.850;-2.246;2023-03-14T05:43:54;12.40;;;2.45;;
40717;SDS011;26405;51.850;-2.246;2023-03-14T05:46:20;12.75;;;2.67;;
40717;SDS011;26405;51.850;-2.246;2023-03-14T05:48:45;9.73;;;2.25;;
40717;SDS011;26405;51.850;-2.246;2023-03-14T05:51:10;12.02;;;2.38;;
40717;SDS011;26405;51.850;-2.246;2023-03-14T05:53:36;10.90;;;2.30;;
40717;SDS011;26405;51.850;-2.246;2023-03-14T05:56:01;11.05;;;2.50;;
40717;SDS011;26405;51.850;-2.246;2023-03-14T05:58:26;10.18;;;2.28;;
40717;SDS011;26405;51.850;-2.246;2023-03-14T06:00:51;13.27;;;2.25;;
40717;SDS011;26405;51.850;-2.246;2023-03-14T06:03:17;9.40;;;2.08;;
40717;SDS011;26405;51.850;-2.246;2023-03-14T06:05:42;8.20;;;2.20;;
40717;SDS011;26405;51.850;-2.246;2023-03-14T06:08:07;11.25;;;2.65;;
40717;SDS011;26405;51.850;-2.246;2023-03-14T06:10:34;12.05;;;2.67;;
40717;SDS011;26405;51.850;-2.246;2023-03-14T06:12:59;8.30;;;2.35;;
40717;SDS011;26405;51.850;-2.246;2023-03-14T06:15:24;12.75;;;2.50;;
40717;SDS011;26405;51.850;-2.246;2023-03-14T06:17:50;9.60;;;2.50;;
40717;SDS011;26405;51.850;-2.246;2023-03-14T06:20:15;12.98;;;2.22;;
40717;SDS011;26405;51.850;-2.246;2023-03-14T06:22:40;10.57;;;2.30;;
40717;SDS011;26405;51.850;-2.246;2023-03-14T06:25:07;10.43;;;2.40;;
40717;SDS011;26405;51.850;-2.246;2023-03-14T06:27:32;7.65;;;1.90;;
40717;SDS011;26405;51.850;-2.246;2023-03-14T06:29:58;7.35;;;2.03;;
40717;SDS011;26405;51.850;-2.246;2023-03-14T06:32:23;9.27;;;2.30;;
40717;SDS011;26405;51.850;-2.246;2023-03-14T06:34:48;10.27;;;2.30;;
40717;SDS011;26405;51.850;-2.246;2023-03-14T06:37:14;7.18;;;2.20;;
40717;SDS011;26405;51.850;-2.246;2023-03-14T06:39:39;4.40;;;1.77;;
40717;SDS011;26405;51.850;-2.246;2023-03-14T06:42:04;6.03;;;1.75;;
40717;SDS011;26405;51.850;-2.246;2023-03-14T06:44:30;7.70;;;2.20;;
40717;SDS011;26405;51.850;-2.246;2023-03-14T06:46:55;3.42;;;1.55;;
40717;SDS011;26405;51.850;-2.246;2023-03-14T06:49:20;4.72;;;1.98;;
40717;SDS011;26405;51.850;-2.246;2023-03-14T06:51:45;4.97;;;1.73;;
40717;SDS011;26405;51.850;-2.246;2023-03-14T06:54:11;6.72;;;1.77;;
40717;SDS011;26405;51.850;-2.246;2023-03-14T06:56:37;5.60;;;1.90;;
40717;SDS011;26405;51.850;-2.246;2023-03-14T06:59:02;6.38;;;1.80;;
40717;SDS011;26405;51.850;-2.246;2023-03-14T07:01:27;6.28;;;1.90;;
40717;SDS011;26405;51.850;-2.246;2023-03-14T07:03:53;3.78;;;1.75;;
40717;SDS011;26405;51.850;-2.246;2023-03-14T07:06:19;6.68;;;1.75;;
40717;SDS011;26405;51.850;-2.246;2023-03-14T07:08:44;7.22;;;1.92;;
40717;SDS011;26405;51.850;-2.246;2023-03-14T07:11:09;3.67;;;1.55;;
40717;SDS011;26405;51.850;-2.246;2023-03-14T07:13:38;4.93;;;1.45;;
40717;SDS011;26405;51.850;-2.246;2023-03-14T07:16:03;6.65;;;1.88;;
40717;SDS011;26405;51.850;-2.246;2023-03-14T07:18:29;4.82;;;1.80;;
40717;SDS011;26405;51.850;-2.246;2023-03-14T07:20:54;6.68;;;1.90;;
40717;SDS011;26405;51.850;-2.246;2023-03-14T07:23:19;5.20;;;1.67;;
40717;SDS011;26405;51.850;-2.246;2023-03-14T07:25:45;4.35;;;1.55;;
40717;SDS011;26405;51.850;-2.246;2023-03-14T07:28:10;5.55;;;1.65;;
40717;SDS011;26405;51.850;-2.246;2023-03-14T07:30:35;8.25;;;1.85;;
40717;SDS011;26405;51.850;-2.246;2023-03-14T07:33:00;6.50;;;2.03;;
40717;SDS011;26405;51.850;-2.246;2023-03-14T07:35:26;5.50;;;1.70;;
40717;SDS011;26405;51.850;-2.246;2023-03-14T07:37:51;4.05;;;1.50;;
40717;SDS011;26405;51.850;-2.246;2023-03-14T07:40:16;1.73;;;1.30;;
40717;SDS011;26405;51.850;-2.246;2023-03-14T07:42:42;3.28;;;1.35;;
40717;SDS011;26405;51.850;-2.246;2023-03-14T07:45:08;2.92;;;1.40;;
40717;SDS011;26405;51.850;-2.246;2023-03-14T07:47:34;3.53;;;1.38;;
40717;SDS011;26405;51.850;-2.246;2023-03-14T07:49:59;2.33;;;1.20;;
40717;SDS011;26405;51.850;-2.246;2023-03-14T07:52:24;1.85;;;1.17;;
40717;SDS011;26405;51.850;-2.246;2023-03-14T07:54:50;2.05;;;1.13;;
40717;SDS011;26405;51.850;-2.246;2023-03-14T07:57:15;2.63;;;1.05;;
40717;SDS011;26405;51.850;-2.246;2023-03-14T07:59:41;1.33;;;1.13;;
40717;SDS011;26405;51.850;-2.246;2023-03-14T08:02:08;1.15;;;1.05;;
40717;SDS011;26405;51.850;-2.246;2023-03-14T08:04:36;2.33;;;1.17;;
40717;SDS011;26405;51.850;-2.246;2023-03-14T08:07:02;2.47;;;1.13;;
40717;SDS011;26405;51.850;-2.246;2023-03-14T08:09:27;2.42;;;1.13;;
40717;SDS011;26405;51.850;-2.246;2023-03-14T08:11:52;2.00;;;1.23;;
40717;SDS011;26405;51.850;-2.246;2023-03-14T08:14:18;4.00;;;0.98;;
40717;SDS011;26405;51.850;-2.246;2023-03-14T08:16:43;2.00;;;1.20;;
40717;SDS011;26405;51.850;-2.246;2023-03-14T08:19:08;1.55;;;1.27;;
40717;SDS011;26405;51.850;-2.246;2023-03-14T08:21:33;1.05;;;1.00;;
40717;SDS011;26405;51.850;-2.246;2023-03-14T08:23:59;2.05;;;1.15;;
40717;SDS011;26405;51.850;-2.246;2023-03-14T08:26:25;1.00;;;0.87;;
40717;SDS011;26405;51.850;-2.246;2023-03-14T08:28:50;0.90;;;0.90;;
40717;SDS011;26405;51.850;-2.246;2023-03-14T08:31:16;1.98;;;1.08;;
40717;SDS011;26405;51.850;-2.246;2023-03-14T08:33:41;3.15;;;1.20;;
40717;SDS011;26405;51.850;-2.246;2023-03-14T08:36:06;1.55;;;1.17;;
40717;SDS011;26405;51.850;-2.246;2023-03-14T08:38:32;1.05;;;1.00;;
40717;SDS011;26405;51.850;-2.246;2023-03-14T08:41:00;1.48;;;0.90;;
40717;SDS011;26405;51.850;-2.246;2023-03-14T08:43:27;1.65;;;1.30;;
40717;SDS011;26405;51.850;-2.246;2023-03-14T08:45:52;1.00;;;1.00;;
40717;SDS011;26405;51.850;-2.246;2023-03-14T08:48:17;2.40;;;1.00;;
40717;SDS011;26405;51.850;-2.246;2023-03-14T08:50:44;1.33;;;1.20;;
40717;SDS011;26405;51.850;-2.246;2023-03-14T08:53:09;1.45;;;1.30;;
40717;SDS011;26405;51.850;-2.246;2023-03-14T08:55:35;2.92;;;1.23;;
40717;SDS011;26405;51.850;-2.246;2023-03-14T08:58:00;1.73;;;1.23;;
40717;SDS011;26405;51.850;-2.246;2023-03-14T09:00:25;2.85;;;1.70;;
40717;SDS011;26405;51.850;-2.246;2023-03-14T09:02:50;2.13;;;1.67;;
40717;SDS011;26405;51.850;-2.246;2023-03-14T09:05:16;2.28;;;1.83;;
40717;SDS011;26405;51.850;-2.246;2023-03-14T09:07:41;2.85;;;1.80;;
40717;SDS011;26405;51.850;-2.246;2023-03-14T09:10:07;1.75;;;1.60;;
40717;SDS011;26405;51.850;-2.246;2023-03-14T09:12:32;2.75;;;1.83;;
40717;SDS011;26405;51.850;-2.246;2023-03-14T09:14:58;1.90;;;1.40;;
40717;SDS011;26405;51.850;-2.246;2023-03-14T09:17:23;2.92;;;1.50;;
40717;SDS011;26405;51.850;-2.246;2023-03-14T09:19:48;2.65;;;1.63;;
40717;SDS011;26405;51.850;-2.246;2023-03-14T09:22:13;4.13;;;1.92;;
40717;SDS011;26405;51.850;-2.246;2023-03-14T09:24:39;3.22;;;1.90;;
40717;SDS011;26405;51.850;-2.246;2023-03-14T09:27:05;4.35;;;2.17;;
40717;SDS011;26405;51.850;-2.246;2023-03-14T09:29:30;3.55;;;1.70;;
40717;SDS011;26405;51.850;-2.246;2023-03-14T09:31:55;4.63;;;2.15;;
40717;SDS011;26405;51.850;-2.246;2023-03-14T09:36:47;2.25;;;1.45;;
40717;SDS011;26405;51.850;-2.246;2023-03-14T09:39:13;2.47;;;1.42;;
40717;SDS011;26405;51.850;-2.246;2023-03-14T09:41:39;3.45;;;1.50;;
40717;SDS011;26405;51.850;-2.246;2023-03-14T09:44:10;2.85;;;1.50;;
40717;SDS011;26405;51.850;-2.246;2023-03-14T09:46:38;2.38;;;1.30;;
40717;SDS011;26405;51.850;-2.246;2023-03-14T09:49:08;4.33;;;1.40;;
40717;SDS011;26405;51.850;-2.246;2023-03-14T09:51:34;2.40;;;1.45;;
40717;SDS011;26405;51.850;-2.246;2023-03-14T09:54:00;2.20;;;1.60;;
40717;SDS011;26405;51.850;-2.246;2023-03-14T09:56:26;1.90;;;1.40;;
40717;SDS011;26405;51.850;-2.246;2023-03-14T09:58:57;2.70;;;1.63;;
40717;SDS011;26405;51.850;-2.246;2023-03-14T10:01:30;2.13;;;1.30;;
40717;SDS011;26405;51.850;-2.246;2023-03-14T10:03:57;3.75;;;1.95;;
40717;SDS011;26405;51.850;-2.246;2023-03-14T10:06:24;4.35;;;1.50;;
40717;SDS011;26405;51.850;-2.246;2023-03-14T10:08:51;2.22;;;1.40;;
40717;SDS011;26405;51.850;-2.246;2023-03-14T10:11:18;2.10;;;1.40;;
40717;SDS011;26405;51.850;-2.246;2023-03-14T10:13:47;2.67;;;1.42;;
40717;SDS011;26405;51.850;-2.246;2023-03-14T10:16:13;1.40;;;1.30;;
40717;SDS011;26405;51.850;-2.246;2023-03-14T10:18:38;4.25;;;1.60;;
40717;SDS011;26405;51.850;-2.246;2023-03-14T10:23:34;3.57;;;1.47;;
40717;SDS011;26405;51.850;-2.246;2023-03-14T10:26:07;2.50;;;1.25;;
40717;SDS011;26405;51.850;-2.246;2023-03-14T10:28:37;2.15;;;1.27;;
40717;SDS011;26405;51.850;-2.246;2023-03-14T10:31:03;4.25;;;1.40;;
40717;SDS011;26405;51.850;-2.246;2023-03-14T10:33:30;4.57;;;1.48;;
40717;SDS011;26405;51.850;-2.246;2023-03-14T10:36:00;3.40;;;1.52;;
40717;SDS011;26405;51.850;-2.246;2023-03-14T10:38:27;6.97;;;1.90;;
40717;SDS011;26405;51.850;-2.246;2023-03-14T10:40:53;4.30;;;1.52;;
40717;SDS011;26405;51.850;-2.246;2023-03-14T10:43:20;6.75;;;2.08;;
40717;SDS011;26405;51.850;-2.246;2023-03-14T10:46:00;5.30;;;2.15;;
40717;SDS011;26405;51.850;-2.246;2023-03-14T10:48:31;5.82;;;1.90;;
40717;SDS011;26405;51.850;-2.246;2023-03-14T10:51:02;4.05;;;1.88;;
40717;SDS011;26405;51.850;-2.246;2023-03-14T10:53:28;6.65;;;2.30;;
40717;SDS011;26405;51.850;-2.246;2023-03-14T10:55:57;4.80;;;1.80;;
40717;SDS011;26405;51.850;-2.246;2023-03-14T10:58:27;5.00;;;1.80;;
40717;SDS011;26405;51.850;-2.246;2023-03-14T11:00:57;7.38;;;2.20;;
40717;SDS011;26405;51.850;-2.246;2023-03-14T11:03:23;5.25;;;2.17;;
40717;SDS011;26405;51.850;-2.246;2023-03-14T11:05:51;3.90;;;1.80;;
40717;SDS011;26405;51.850;-2.246;2023-03-14T11:08:30;5.70;;;1.80;;
40717;SDS011;26405;51.850;-2.246;2023-03-14T11:11:06;5.72;;;2.00;;
40717;SDS011;26405;51.850;-2.246;2023-03-14T11:13:36;5.05;;;2.20;;
40717;SDS011;26405;51.850;-2.246;2023-03-14T11:21:08;9.90;;;2.38;;
40717;SDS011;26405;51.850;-2.246;2023-03-14T11:26:25;10.30;;;2.95;;
40717;SDS011;26405;51.850;-2.246;2023-03-14T11:28:53;8.05;;;2.33;;
40717;SDS011;26405;51.850;-2.246;2023-03-14T11:31:28;3.70;;;1.75;;
40717;SDS011;26405;51.850;-2.246;2023-03-14T11:34:00;8.93;;;2.33;;
40717;SDS011;26405;51.850;-2.246;2023-03-14T11:36:37;7.38;;;2.35;;
40717;SDS011;26405;51.850;-2.246;2023-03-14T11:39:03;7.57;;;2.40;;
40717;SDS011;26405;51.850;-2.246;2023-03-14T11:41:33;9.57;;;2.20;;
40717;SDS011;26405;51.850;-2.246;2023-03-14T11:44:01;6.85;;;2.00;;
40717;SDS011;26405;51.850;-2.246;2023-03-14T11:46:29;7.35;;;2.17;;
40717;SDS011;26405;51.850;-2.246;2023-03-14T11:49:01;10.60;;;2.40;;
40717;SDS011;26405;51.850;-2.246;2023-03-14T11:51:47;5.85;;;2.10;;
40717;SDS011;26405;51.850;-2.246;2023-03-14T11:57:10;4.68;;;2.00;;
40717;SDS011;26405;51.850;-2.246;2023-03-14T12:07:29;3.70;;;2.03;;
40717;SDS011;26405;51.850;-2.246;2023-03-14T12:09:54;8.65;;;2.20;;
40717;SDS011;26405;51.850;-2.246;2023-03-14T12:12:21;6.82;;;2.40;;
40717;SDS011;26405;51.850;-2.246;2023-03-14T12:19:38;7.17;;;1.80;;
40717;SDS011;26405;51.850;-2.246;2023-03-14T12:22:08;11.87;;;2.30;;
40717;SDS011;26405;51.850;-2.246;2023-03-14T12:24:37;8.77;;;2.35;;
40717;SDS011;26405;51.850;-2.246;2023-03-14T12:27:04;6.30;;;2.20;;
40717;SDS011;26405;51.850;-2.246;2023-03-14T12:29:30;7.53;;;2.20;;
40717;SDS011;26405;51.850;-2.246;2023-03-14T12:34:34;7.53;;;2.10;;
40717;SDS011;26405;51.850;-2.246;2023-03-14T12:42:17;11.55;;;2.50;;
40717;SDS011;26405;51.850;-2.246;2023-03-14T12:44:48;11.57;;;2.63;;
40717;SDS011;26405;51.850;-2.246;2023-03-14T12:49:42;7.10;;;2.10;;
40717;SDS011;26405;51.850;-2.246;2023-03-14T12:52:13;12.40;;;2.67;;
40717;SDS011;26405;51.850;-2.246;2023-03-14T13:02:59;9.25;;;2.50;;
40717;SDS011;26405;51.850;-2.246;2023-03-14T13:12:31;9.98;;;2.38;;
40717;SDS011;26405;51.850;-2.246;2023-03-14T13:15:00;10.45;;;2.70;;
40717;SDS011;26405;51.850;-2.246;2023-03-14T13:17:27;10.55;;;2.25;;
40717;SDS011;26405;51.850;-2.246;2023-03-14T13:19:55;8.32;;;2.50;;
40717;SDS011;26405;51.850;-2.246;2023-03-14T13:22:26;5.50;;;1.98;;
40717;SDS011;26405;51.850;-2.246;2023-03-14T13:24:59;5.47;;;1.80;;
40717;SDS011;26405;51.850;-2.246;2023-03-14T13:27:24;5.22;;;2.03;;
40717;SDS011;26405;51.850;-2.246;2023-03-14T13:29:50;8.07;;;2.25;;
40717;SDS011;26405;51.850;-2.246;2023-03-14T13:32:17;5.78;;;1.75;;
40717;SDS011;26405;51.850;-2.246;2023-03-14T13:34:44;7.85;;;2.35;;
40717;SDS011;26405;51.850;-2.246;2023-03-14T13:37:16;8.68;;;2.10;;
40717;SDS011;26405;51.850;-2.246;2023-03-14T13:39:42;8.68;;;2.50;;
40717;SDS011;26405;51.850;-2.246;2023-03-14T13:42:13;11.60;;;2.13;;
40717;SDS011;26405;51.850;-2.246;2023-03-14T13:44:39;8.88;;;2.33;;
40717;SDS011;26405;51.850;-2.246;2023-03-14T13:47:06;10.60;;;2.60;;
40717;SDS011;26405;51.850;-2.246;2023-03-14T13:49:34;9.63;;;2.63;;
40717;SDS011;26405;51.850;-2.246;2023-03-14T13:52:01;7.78;;;2.70;;
40717;SDS011;26405;51.850;-2.246;2023-03-14T13:54:27;7.63;;;2.03;;
40717;SDS011;26405;51.850;-2.246;2023-03-14T13:56:59;9.63;;;2.55;;
40717;SDS011;26405;51.850;-2.246;2023-03-14T13:59:26;28.08;;;5.35;;
40717;SDS011;26405;51.850;-2.246;2023-03-14T14:01:52;7.63;;;2.45;;
40717;SDS011;26405;51.850;-2.246;2023-03-14T14:04:18;7.47;;;2.40;;
40717;SDS011;26405;51.850;-2.246;2023-03-14T14:09:10;16.58;;;2.17;;
40717;SDS011;26405;51.850;-2.246;2023-03-14T14:14:05;10.85;;;2.70;;
40717;SDS011;26405;51.850;-2.246;2023-03-14T14:16:32;8.40;;;2.28;;
40717;SDS011;26405;51.850;-2.246;2023-03-14T14:18:58;6.18;;;2.30;;
40717;SDS011;26405;51.850;-2.246;2023-03-14T14:21:24;8.88;;;2.25;;
40717;SDS011;26405;51.850;-2.246;2023-03-14T14:23:50;7.82;;;2.22;;
40717;SDS011;26405;51.850;-2.246;2023-03-14T14:26:16;11.68;;;2.25;;
40717;SDS011;26405;51.850;-2.246;2023-03-14T14:28:42;7.18;;;2.20;;
40717;SDS011;26405;51.850;-2.246;2023-03-14T14:33:43;9.35;;;2.40;;
40717;SDS011;26405;51.850;-2.246;2023-03-14T14:39:04;8.65;;;2.28;;
40717;SDS011;26405;51.850;-2.246;2023-03-14T14:41:31;10.35;;;2.58;;
40717;SDS011;26405;51.850;-2.246;2023-03-14T14:43:57;8.43;;;1.95;;
40717;SDS011;26405;51.850;-2.246;2023-03-14T14:46:23;7.50;;;2.30;;
40717;SDS011;26405;51.850;-2.246;2023-03-14T14:48:54;11.35;;;2.70;;
40717;SDS011;26405;51.850;-2.246;2023-03-14T14:51:24;8.82;;;2.67;;
40717;SDS011;26405;51.850;-2.246;2023-03-14T14:53:59;9.07;;;2.50;;
40717;SDS011;26405;51.850;-2.246;2023-03-14T14:56:25;6.68;;;2.17;;
40717;SDS011;26405;51.850;-2.246;2023-03-14T14:58:55;6.30;;;2.00;;
40717;SDS011;26405;51.850;-2.246;2023-03-14T15:01:24;7.70;;;2.40;;
40717;SDS011;26405;51.850;-2.246;2023-03-14T15:03:52;8.63;;;2.20;;
40717;SDS011;26405;51.850;-2.246;2023-03-14T15:06:18;9.40;;;2.53;;
40717;SDS011;26405;51.850;-2.246;2023-03-14T15:08:44;10.48;;;2.30;;
40717;SDS011;26405;51.850;-2.246;2023-03-14T15:11:16;7.90;;;2.20;;
40717;SDS011;26405;51.850;-2.246;2023-03-14T15:13:42;12.18;;;2.50;;
40717;SDS011;26405;51.850;-2.246;2023-03-14T15:16:10;10.10;;;2.75;;
40717;SDS011;26405;51.850;-2.246;2023-03-14T15:18:36;8.98;;;1.90;;
40717;SDS011;26405;51.850;-2.246;2023-03-14T15:21:01;6.57;;;2.13;;
40717;SDS011;26405;51.850;-2.246;2023-03-14T15:23:27;9.63;;;2.10;;
40717;SDS011;26405;51.850;-2.246;2023-03-14T15:25:52;9.57;;;2.60;;
40717;SDS011;26405;51.850;-2.246;2023-03-14T15:28:18;7.40;;;1.97;;
40717;SDS011;26405;51.850;-2.246;2023-03-14T15:30:45;8.95;;;2.30;;
40717;SDS011;26405;51.850;-2.246;2023-03-14T15:33:10;6.85;;;1.85;;
40717;SDS011;26405;51.850;-2.246;2023-03-14T15:35:36;5.15;;;1.90;;
40717;SDS011;26405;51.850;-2.246;2023-03-14T15:38:02;4.93;;;1.63;;
40717;SDS011;26405;51.850;-2.246;2023-03-14T15:40:27;6.13;;;1.98;;
40717;SDS011;26405;51.850;-2.246;2023-03-14T15:42:53;3.53;;;1.83;;